createdAt,value
2023-03-23T15:59:50.523Z,16.70
2023-03-23T16:02:22.116Z,16.40
2023-03-23T16:04:50.147Z,16.00
2023-03-23T16:07:19.603Z,16.10
2023-03-23T16:09:46.239Z,15.70
2023-03-23T16:12:13.463Z,15.70
2023-03-23T16:14:40.977Z,15.60
2023-03-23T16:17:13.674Z,15.50
2023-03-23T16:19:40.230Z,16.50
2023-03-23T16:22:07.048Z,15.50
2023-03-23T16:24:33.609Z,15.40
2023-03-23T16:27:00.231Z,15.40
2023-03-23T16:29:43.308Z,15.40
2023-03-23T16:32:13.707Z,15.30
2023-03-23T16:34:40.496Z,15.20
2023-03-23T16:37:07.222Z,15.20
2023-03-23T16:39:33.861Z,15.30
2023-03-23T16:42:00.535Z,15.30
2023-03-23T16:44:27.119Z,15.00
2023-03-23T16:46:53.663Z,14.90
2023-03-23T16:49:20.271Z,15.30
2023-03-23T16:51:48.143Z,14.90
2023-03-23T16:54:14.754Z,14.90
2023-03-23T16:56:41.653Z,15.00
2023-03-23T16:59:08.318Z,14.80
2023-03-23T17:01:34.969Z,14.90
2023-03-23T17:04:01.710Z,14.70
2023-03-23T17:06:28.338Z,14.70
2023-03-23T17:08:55.107Z,14.70
2023-03-23T17:11:22.015Z,15.90
2023-03-23T17:13:48.586Z,14.60
2023-03-23T17:16:15.564Z,14.60
2023-03-23T17:18:42.283Z,14.60
2023-03-23T17:21:09.012Z,14.50
2023-03-23T17:23:35.738Z,14.40
2023-03-23T17:26:02.440Z,14.40
2023-03-23T17:28:29.067Z,14.40
2023-03-23T17:30:55.690Z,14.40
2023-03-23T17:33:22.241Z,14.30
2023-03-23T17:35:51.623Z,14.30
2023-03-23T17:38:18.550Z,14.30
2023-03-23T17:40:45.180Z,14.20
2023-03-23T17:43:12.000Z,14.10
2023-03-23T17:45:38.774Z,14.10
2023-03-23T17:48:07.599Z,14.10
2023-03-23T17:50:35.564Z,14.10
2023-03-23T17:53:02.114Z,14.00
2023-03-23T17:55:28.823Z,14.00
2023-03-23T17:57:55.479Z,14.00
2023-03-23T18:00:22.234Z,14.00
2023-03-23T18:02:48.970Z,13.90
2023-03-23T18:05:15.957Z,13.90
2023-03-23T18:07:42.649Z,14.00
2023-03-23T18:10:12.803Z,13.90
2023-03-23T18:12:41.036Z,14.00
2023-03-23T18:15:08.989Z,13.90
2023-03-23T18:17:35.957Z,13.90
2023-03-23T18:20:03.425Z,13.90
2023-03-23T18:22:30.273Z,13.80
2023-03-23T18:24:58.279Z,13.40
2023-03-23T18:27:26.058Z,13.70
2023-03-23T18:29:52.642Z,13.50
2023-03-23T18:32:19.732Z,13.40
2023-03-23T18:34:46.796Z,13.40
2023-03-23T18:37:13.458Z,13.20
2023-03-23T18:39:43.076Z,13.10
2023-03-23T18:42:09.868Z,13.10
2023-03-23T18:44:36.504Z,13.00
2023-03-23T18:47:03.182Z,13.00
2023-03-23T18:49:30.394Z,12.90
2023-03-23T18:51:57.105Z,12.90
2023-03-23T18:54:23.654Z,12.80
2023-03-23T18:56:50.215Z,12.80
2023-03-23T18:59:16.786Z,12.80
2023-03-23T19:01:43.419Z,12.70
2023-03-23T19:04:13.214Z,12.70
2023-03-23T19:06:39.932Z,12.70
2023-03-23T19:09:07.139Z,12.80
2023-03-23T19:11:33.827Z,12.80
2023-03-23T19:14:03.326Z,12.80
2023-03-23T19:16:32.781Z,12.90
2023-03-23T19:19:01.643Z,12.70
2023-03-23T19:21:31.504Z,13.00
2023-03-23T19:23:59.055Z,12.80
2023-03-23T19:26:34.715Z,13.00
2023-03-23T19:29:25.448Z,13.00
2023-03-23T19:31:51.873Z,13.00
2023-03-23T19:34:18.612Z,13.00
2023-03-23T19:36:53.733Z,13.00
2023-03-23T19:39:23.170Z,13.00
2023-03-23T19:41:51.038Z,13.10
2023-03-23T19:44:18.021Z,13.10
2023-03-23T19:46:44.881Z,13.10
2023-03-23T19:49:11.512Z,13.10
2023-03-23T19:51:38.547Z,13.10
2023-03-23T19:54:09.267Z,13.10
2023-03-23T19:56:36.010Z,13.10
2023-03-23T19:59:02.976Z,12.50
2023-03-23T20:01:29.788Z,13.10
2023-03-23T20:03:59.725Z,13.10
2023-03-23T20:06:29.218Z,13.10
2023-03-23T20:08:56.626Z,13.10
2023-03-23T20:11:23.484Z,13.20
2023-03-23T20:13:50.573Z,13.20
2023-03-23T20:16:18.277Z,13.20
2023-03-23T20:18:46.701Z,13.20
2023-03-23T20:21:17.368Z,13.30
2023-03-23T20:23:46.292Z,13.20
2023-03-23T20:26:21.951Z,13.30
2023-03-23T20:28:48.690Z,13.30
2023-03-23T20:31:24.227Z,13.30
2023-03-23T20:34:00.498Z,13.30
2023-03-23T20:36:35.703Z,13.20
2023-03-23T20:39:10.867Z,13.30
2023-03-23T20:41:40.106Z,13.30
2023-03-23T20:44:09.073Z,13.40
2023-03-23T20:46:36.370Z,13.30
2023-03-23T20:49:03.227Z,13.30
2023-03-23T20:51:30.236Z,13.20
2023-03-23T20:53:56.809Z,13.30
2023-03-23T20:56:24.371Z,13.30
2023-03-23T20:58:51.917Z,13.30
2023-03-23T21:01:18.725Z,13.50
2023-03-23T21:03:45.591Z,13.30
2023-03-23T21:06:12.231Z,13.30
2023-03-23T21:08:40.691Z,13.30
2023-03-23T21:11:09.642Z,13.30
2023-03-23T21:13:36.655Z,13.30
2023-03-23T21:16:04.135Z,13.20
2023-03-23T21:18:31.563Z,13.30
2023-03-23T21:21:00.169Z,13.30
2023-03-23T21:23:29.348Z,13.30
2023-03-23T21:26:01.667Z,13.30
2023-03-23T21:28:28.418Z,13.30
2023-03-23T21:30:59.078Z,13.20
2023-03-23T21:33:25.971Z,13.30
2023-03-23T21:35:52.665Z,13.30
2023-03-23T21:38:19.754Z,13.30
2023-03-23T21:40:46.716Z,13.30
2023-03-23T21:43:13.939Z,13.30
2023-03-23T21:45:42.319Z,13.30
2023-03-23T21:48:09.538Z,13.30
2023-03-23T21:50:38.136Z,13.40
2023-03-23T21:53:05.652Z,13.40
2023-03-23T21:55:33.445Z,13.10
2023-03-23T21:58:01.276Z,13.00
2023-03-23T22:00:28.382Z,12.70
2023-03-23T22:02:55.034Z,13.00
2023-03-23T22:05:21.951Z,13.00
2023-03-23T22:07:49.140Z,13.00
2023-03-23T22:10:15.816Z,13.00
2023-03-23T22:12:42.402Z,13.00
2023-03-23T22:15:13.639Z,13.00
2023-03-23T22:17:40.453Z,12.90
2023-03-23T22:20:10.834Z,12.90
2023-03-23T22:22:37.363Z,12.80
2023-03-23T22:25:04.598Z,12.80
2023-03-23T22:27:31.925Z,12.80
2023-03-23T22:29:58.518Z,12.70
2023-03-23T22:32:25.309Z,12.70
2023-03-23T22:34:51.881Z,12.70
2023-03-23T22:37:18.923Z,12.70
2023-03-23T22:39:45.480Z,12.70
2023-03-23T22:42:13.074Z,12.70
2023-03-23T22:44:40.717Z,12.40
2023-03-23T22:47:07.305Z,12.50
2023-03-23T22:49:33.921Z,12.60
2023-03-23T22:52:00.531Z,12.50
2023-03-23T22:54:27.166Z,12.50
2023-03-23T22:56:53.794Z,12.50
2023-03-23T22:59:20.978Z,12.40
2023-03-23T23:01:47.543Z,12.50
2023-03-23T23:04:14.127Z,12.40
2023-03-23T23:06:40.861Z,12.30
2023-03-23T23:09:07.920Z,12.40
2023-03-23T23:11:34.734Z,12.30
2023-03-23T23:14:01.696Z,12.30
2023-03-23T23:16:28.513Z,12.30
2023-03-23T23:18:55.438Z,12.20
2023-03-23T23:21:25.129Z,12.20
2023-03-23T23:23:52.466Z,12.20
2023-03-23T23:26:20.109Z,12.10
2023-03-23T23:28:47.020Z,12.20
2023-03-23T23:31:29.206Z,12.10
2023-03-23T23:33:58.248Z,12.10
2023-03-23T23:36:29.755Z,12.10
2023-03-23T23:38:58.015Z,12.10
2023-03-23T23:41:24.938Z,12.10
2023-03-23T23:43:51.958Z,12.00
2023-03-23T23:46:18.590Z,12.00
2023-03-23T23:48:46.361Z,12.00
2023-03-23T23:51:16.463Z,12.00
2023-03-23T23:53:45.143Z,12.00
2023-03-23T23:56:13.223Z,12.00
2023-03-23T23:58:40.145Z,11.90
